createdAt,value
2019-04-05T00:01:14.792Z,5.60
2019-04-05T00:03:43.761Z,5.70
2019-04-05T00:06:12.721Z,5.70
2019-04-05T00:08:41.938Z,5.70
2019-04-05T00:11:10.974Z,5.70
2019-04-05T00:13:40.113Z,5.70
2019-04-05T00:16:10.120Z,5.70
2019-04-05T00:18:39.064Z,5.80
2019-04-05T00:21:08.080Z,5.80
2019-04-05T00:23:36.936Z,5.80
2019-04-05T00:26:06.289Z,5.80
2019-04-05T00:28:35.200Z,5.80
2019-04-05T00:31:04.162Z,5.80
2019-04-05T00:33:33.248Z,5.80
2019-04-05T00:36:02.272Z,5.90
2019-04-05T00:38:31.241Z,5.80
2019-04-05T00:41:00.480Z,5.80
2019-04-05T00:43:29.513Z,5.90
2019-04-05T00:45:58.472Z,5.90
2019-04-05T00:48:27.289Z,5.90
2019-04-05T00:50:56.376Z,5.90
2019-04-05T00:53:25.573Z,5.90
2019-04-05T00:55:54.668Z,5.90
2019-04-05T00:58:23.609Z,5.90
2019-04-05T01:00:52.741Z,5.90
2019-04-05T01:03:21.625Z,5.90
2019-04-05T01:05:50.792Z,5.90
2019-04-05T01:08:19.880Z,6.00
2019-04-05T01:10:49.088Z,6.00
2019-04-05T01:13:19.528Z,6.00
2019-04-05T01:15:48.408Z,6.00
2019-04-05T01:18:17.552Z,6.00
2019-04-05T01:20:49.425Z,6.00
2019-04-05T01:23:19.113Z,6.00
2019-04-05T01:25:48.770Z,6.00
2019-04-05T01:28:18.113Z,6.00
2019-04-05T01:30:47.172Z,6.00
2019-04-05T01:33:16.425Z,6.10
2019-04-05T01:35:45.376Z,6.10
2019-04-05T01:38:14.248Z,6.10
2019-04-05T01:40:46.287Z,6.10
2019-04-05T01:43:15.960Z,6.10
2019-04-05T01:45:53.507Z,6.10
2019-04-05T01:48:17.464Z,6.10
2019-04-05T01:50:46.427Z,6.10
2019-04-05T01:53:15.728Z,6.10
2019-04-05T01:55:44.633Z,6.10
2019-04-05T01:58:13.577Z,6.10
2019-04-05T02:00:42.704Z,6.10
2019-04-05T02:03:11.649Z,6.10
2019-04-05T02:05:40.698Z,6.10
2019-04-05T02:08:09.729Z,6.10
2019-04-05T02:10:38.960Z,6.10
2019-04-05T02:13:11.440Z,6.10
2019-04-05T02:15:40.664Z,6.10
2019-04-05T02:18:09.576Z,6.20
2019-04-05T02:20:38.664Z,6.20
2019-04-05T02:23:07.722Z,6.20
2019-04-05T02:25:37.113Z,6.20
2019-04-05T02:28:06.200Z,6.30
2019-04-05T02:30:35.377Z,6.30
2019-04-05T02:33:04.733Z,6.30
2019-04-05T02:35:33.874Z,6.30
2019-04-05T02:38:04.642Z,6.30
2019-04-05T02:40:35.401Z,6.30
2019-04-05T02:43:09.703Z,6.30
2019-04-05T02:45:40.824Z,6.30
2019-04-05T02:48:13.384Z,6.30
2019-04-05T02:50:45.467Z,6.30
2019-04-05T02:53:17.712Z,6.30
2019-04-05T02:55:48.738Z,6.30
2019-04-05T02:58:19.256Z,6.30
2019-04-05T03:00:48.836Z,6.30
2019-04-05T03:03:17.945Z,6.30
2019-04-05T03:05:47.605Z,6.30
2019-04-05T03:08:18.522Z,6.30
2019-04-05T03:11:05.853Z,6.30
2019-04-05T03:13:40.938Z,6.30
2019-04-05T03:16:39.273Z,6.30
2019-04-05T03:18:57.686Z,6.30
2019-04-05T03:21:29.399Z,6.30
2019-04-05T03:24:01.688Z,6.30
2019-04-05T03:26:33.465Z,6.40
2019-04-05T03:29:05.500Z,6.40
2019-04-05T03:31:34.964Z,6.40
2019-04-05T03:34:04.353Z,6.40
2019-04-05T03:36:33.482Z,6.40
2019-04-05T03:39:02.698Z,6.30
2019-04-05T03:41:31.712Z,6.40
2019-04-05T03:44:01.025Z,6.40
2019-04-05T03:46:30.211Z,6.40
2019-04-05T03:48:59.818Z,6.40
2019-04-05T03:51:28.880Z,6.40
2019-04-05T03:53:58.002Z,6.40
2019-04-05T03:56:27.745Z,6.40
2019-04-05T03:58:57.073Z,6.40
2019-04-05T04:01:25.972Z,6.40
2019-04-05T04:03:55.019Z,6.30
2019-04-05T04:06:24.257Z,6.40
2019-04-05T04:08:53.648Z,6.40
2019-04-05T04:11:23.125Z,6.40
2019-04-05T04:13:52.753Z,6.40
2019-04-05T04:16:24.008Z,6.40
2019-04-05T04:18:53.122Z,6.40
2019-04-05T04:21:25.130Z,6.40
2019-04-05T04:23:54.530Z,6.40
2019-04-05T04:26:23.953Z,6.30
2019-04-05T04:28:53.577Z,6.30
2019-04-05T04:31:23.355Z,6.30
2019-04-05T04:33:53.316Z,6.30
2019-04-05T04:36:22.579Z,6.20
2019-04-05T04:38:51.681Z,6.20
2019-04-05T04:41:20.891Z,6.10
2019-04-05T04:43:49.986Z,6.10
2019-04-05T04:46:19.792Z,6.10
2019-04-05T04:48:49.401Z,6.10
2019-04-05T04:51:19.752Z,6.10
2019-04-05T04:53:49.217Z,6.10
2019-04-05T04:56:19.256Z,6.10
2019-04-05T04:58:48.569Z,6.10
2019-04-05T05:01:17.658Z,6.00
2019-04-05T05:03:47.090Z,6.00
2019-04-05T05:06:19.433Z,6.00
2019-04-05T05:08:48.499Z,6.00
2019-04-05T05:11:18.456Z,6.00
2019-04-05T05:13:47.649Z,5.90
2019-04-05T05:16:17.017Z,5.90
2019-04-05T05:18:46.224Z,5.90
2019-04-05T05:21:15.698Z,5.80
2019-04-05T05:23:45.091Z,5.80
2019-04-05T05:26:14.323Z,5.80
2019-04-05T05:28:43.681Z,5.80
2019-04-05T05:31:12.947Z,5.70
2019-04-05T05:33:42.050Z,5.70
2019-04-05T05:36:11.168Z,5.70
2019-04-05T05:38:40.328Z,5.70
2019-04-05T05:41:09.523Z,5.70
2019-04-05T05:43:38.537Z,5.70
2019-04-05T05:46:08.848Z,5.70
2019-04-05T05:48:38.336Z,5.60
2019-04-05T05:51:07.768Z,5.70
2019-04-05T05:53:38.008Z,5.70
2019-04-05T05:56:07.618Z,5.60
2019-04-05T05:58:37.269Z,5.60
2019-04-05T06:01:10.665Z,5.60
2019-04-05T06:03:39.731Z,5.70
2019-04-05T06:06:08.813Z,5.60
2019-04-05T06:08:37.815Z,5.60
2019-04-05T06:11:06.944Z,5.70
2019-04-05T06:13:36.161Z,5.80
2019-04-05T06:16:05.280Z,5.80
2019-04-05T06:18:34.147Z,6.00
2019-04-05T06:21:03.545Z,6.00
2019-04-05T06:23:34.195Z,6.10
2019-04-05T06:26:03.473Z,6.10
2019-04-05T06:28:34.504Z,6.20
2019-04-05T06:31:03.761Z,6.30
2019-04-05T06:33:35.715Z,6.40
2019-04-05T06:36:03.617Z,6.50
2019-04-05T06:38:32.476Z,6.60
2019-04-05T06:41:01.792Z,6.60
2019-04-05T06:43:30.976Z,6.70
2019-04-05T06:45:59.975Z,6.70
2019-04-05T06:48:29.694Z,6.80
2019-04-05T06:50:58.993Z,6.90
2019-04-05T06:53:27.980Z,7.00
2019-04-05T06:55:59.548Z,7.00
2019-04-05T06:58:29.054Z,7.10
2019-04-05T07:00:58.131Z,7.10
2019-04-05T07:03:27.144Z,7.10
2019-04-05T07:05:56.050Z,7.20
2019-04-05T07:08:25.121Z,7.30
2019-04-05T07:10:54.274Z,7.50
2019-04-05T07:13:23.385Z,7.50
2019-04-05T07:15:52.512Z,7.60
2019-04-05T07:18:32.708Z,7.60
2019-04-05T07:20:52.576Z,7.60
2019-04-05T07:23:21.896Z,7.60
2019-04-05T07:25:51.152Z,7.70
2019-04-05T07:28:20.192Z,7.70
2019-04-05T07:30:51.761Z,7.60
2019-04-05T07:33:20.795Z,7.60
2019-04-05T07:35:49.896Z,7.70
2019-04-05T07:38:19.123Z,7.80
2019-04-05T07:40:48.353Z,7.90
2019-04-05T07:43:17.464Z,7.90
2019-04-05T07:45:46.762Z,7.90
2019-04-05T07:48:16.161Z,7.90
2019-04-05T07:50:45.109Z,7.90
2019-04-05T07:53:14.002Z,7.90
2019-04-05T07:55:43.033Z,8.00
2019-04-05T07:58:12.250Z,8.10
2019-04-05T08:00:55.674Z,8.10
2019-04-05T08:03:25.224Z,8.20
2019-04-05T08:05:54.992Z,8.30
2019-04-05T08:08:46.139Z,8.40
2019-04-05T08:11:16.824Z,8.50
2019-04-05T08:13:47.888Z,8.50
2019-04-05T08:16:17.121Z,8.60
2019-04-05T08:18:57.241Z,8.50
2019-04-05T08:21:17.162Z,8.50
2019-04-05T08:23:46.296Z,8.60
2019-04-05T08:26:15.318Z,8.70
2019-04-05T08:28:44.386Z,8.90
2019-04-05T08:31:14.721Z,9.10
2019-04-05T08:33:43.913Z,9.10
2019-04-05T08:36:13.285Z,9.10
2019-04-05T08:38:44.417Z,9.10
2019-04-05T08:41:13.787Z,9.30
2019-04-05T08:43:42.970Z,9.30
2019-04-05T08:46:12.282Z,9.40
2019-04-05T08:48:41.338Z,9.60
2019-04-05T08:51:10.330Z,9.70
2019-04-05T08:53:39.256Z,9.70
2019-04-05T08:56:08.361Z,9.60
2019-04-05T08:58:37.320Z,9.60
2019-04-05T09:01:06.377Z,9.70
2019-04-05T09:03:35.345Z,9.70
2019-04-05T09:06:04.587Z,9.70
2019-04-05T09:08:33.698Z,9.80
2019-04-05T09:11:02.745Z,9.90
2019-04-05T09:13:31.694Z,10.20
2019-04-05T09:16:00.971Z,10.30
2019-04-05T09:18:30.144Z,10.30
2019-04-05T09:20:59.521Z,10.40
2019-04-05T09:23:28.620Z,10.50
2019-04-05T09:25:57.692Z,10.40
2019-04-05T09:28:26.552Z,10.20
2019-04-05T09:30:55.768Z,10.40
2019-04-05T09:33:24.754Z,10.60
2019-04-05T09:35:53.777Z,10.50
2019-04-05T09:38:23.361Z,10.50
2019-04-05T09:40:52.787Z,10.80
2019-04-05T09:43:22.362Z,10.70
2019-04-05T09:45:54.354Z,11.10
2019-04-05T09:48:23.832Z,11.10
2019-04-05T09:50:53.129Z,11.20
2019-04-05T09:53:28.310Z,11.10
2019-04-05T09:55:57.346Z,11.10
2019-04-05T09:58:26.586Z,11.20
2019-04-05T10:00:55.848Z,11.20
2019-04-05T10:03:27.850Z,11.00
2019-04-05T10:05:57.010Z,10.80
2019-04-05T10:08:26.434Z,10.70
2019-04-05T10:10:56.441Z,10.50
2019-04-05T10:13:25.624Z,10.30
2019-04-05T10:15:54.970Z,10.20
2019-04-05T10:18:24.090Z,10.40
2019-04-05T10:20:53.137Z,10.80
2019-04-05T10:23:22.424Z,11.20
2019-04-05T10:25:51.875Z,11.10
2019-04-05T10:28:21.466Z,11.10
2019-04-05T10:30:51.914Z,11.10
2019-04-05T10:33:22.018Z,11.10
2019-04-05T10:35:51.441Z,11.30
2019-04-05T10:38:20.849Z,11.00
2019-04-05T10:40:50.153Z,11.20
2019-04-05T10:43:19.504Z,11.50
2019-04-05T10:45:49.241Z,10.90
2019-04-05T10:48:18.650Z,11.10
2019-04-05T10:50:49.297Z,11.50
2019-04-05T10:53:18.474Z,12.00
2019-04-05T10:55:47.786Z,12.30
2019-04-05T10:58:17.018Z,12.70
2019-04-05T11:00:46.265Z,12.80
2019-04-05T11:03:15.713Z,12.70
2019-04-05T11:05:45.113Z,12.70
2019-04-05T11:08:17.273Z,13.00
2019-04-05T11:10:46.570Z,13.20
2019-04-05T11:13:16.317Z,13.40
2019-04-05T11:15:47.042Z,13.20
2019-04-05T11:18:16.348Z,13.40
2019-04-05T11:20:48.985Z,13.80
2019-04-05T11:23:16.401Z,14.00
2019-04-05T11:25:45.857Z,14.20
2019-04-05T11:28:15.451Z,14.20
2019-04-05T11:30:48.145Z,14.10
2019-04-05T11:33:19.761Z,13.90
2019-04-05T11:35:48.818Z,13.90
2019-04-05T11:38:19.545Z,13.70
2019-04-05T11:40:49.833Z,13.90
2019-04-05T11:43:21.683Z,13.70
2019-04-05T11:45:51.856Z,13.90
2019-04-05T11:48:21.304Z,14.00
2019-04-05T11:50:51.066Z,14.20
2019-04-05T11:53:22.127Z,14.40
2019-04-05T11:55:51.968Z,14.50
2019-04-05T11:58:21.713Z,14.50
2019-04-05T12:00:52.722Z,14.30
2019-04-05T12:03:23.314Z,14.10
2019-04-05T12:05:52.577Z,14.40
2019-04-05T12:08:21.809Z,14.00
2019-04-05T12:10:51.474Z,14.10
2019-04-05T12:13:20.717Z,14.00
2019-04-05T12:15:54.474Z,14.10
2019-04-05T12:18:24.113Z,13.90
2019-04-05T12:20:59.993Z,14.00
2019-04-05T12:23:27.562Z,13.40
2019-04-05T12:25:56.930Z,13.70
2019-04-05T12:28:26.298Z,13.90
2019-04-05T12:30:55.553Z,13.90
2019-04-05T12:33:24.698Z,14.30
2019-04-05T12:35:56.535Z,14.00
2019-04-05T12:38:31.484Z,13.60
2019-04-05T12:41:03.497Z,14.10
2019-04-05T12:43:35.883Z,14.50
2019-04-05T12:46:06.153Z,14.30
2019-04-05T12:48:35.274Z,14.20
2019-04-05T12:51:05.550Z,14.80
2019-04-05T12:59:10.161Z,15.00
2019-04-05T13:01:39.394Z,14.70
2019-04-05T13:04:08.764Z,14.80
2019-04-05T13:06:38.498Z,15.10
2019-04-05T13:09:10.598Z,15.20
2019-04-05T13:11:39.781Z,15.20
2019-04-05T13:14:08.939Z,14.80
2019-04-05T13:16:38.300Z,15.00
2019-04-05T13:19:10.780Z,15.10
2019-04-05T13:21:40.492Z,15.70
2019-04-05T13:24:12.641Z,15.50
2019-04-05T13:26:42.814Z,15.50
2019-04-05T13:29:12.163Z,15.80
2019-04-05T13:31:42.741Z,15.50
2019-04-05T13:34:13.370Z,15.70
2019-04-05T13:36:43.379Z,15.30
2019-04-05T13:39:12.786Z,15.00
2019-04-05T13:41:41.917Z,14.90
2019-04-05T13:44:11.313Z,14.60
2019-04-05T13:46:42.720Z,14.30
2019-04-05T13:49:11.522Z,14.50
2019-04-05T13:51:42.133Z,14.60
2019-04-05T13:54:11.788Z,14.50
2019-04-05T13:56:41.462Z,14.40
2019-04-05T13:59:11.490Z,14.20
2019-04-05T14:01:40.794Z,14.40
2019-04-05T14:04:10.620Z,14.70
2019-04-05T14:06:40.166Z,14.40
2019-04-05T14:09:10.458Z,14.80
2019-04-05T14:11:40.127Z,15.20
2019-04-05T14:14:09.709Z,15.00
2019-04-05T14:16:42.737Z,14.80
2019-04-05T14:19:11.585Z,14.60
2019-04-05T14:21:47.336Z,14.50
2019-04-05T14:24:12.465Z,14.20
2019-04-05T14:26:43.574Z,13.80
2019-04-05T14:29:13.779Z,13.70
2019-04-05T14:31:43.009Z,13.30
2019-04-05T14:34:12.369Z,13.70
2019-04-05T14:36:42.385Z,14.10
2019-04-05T14:39:12.131Z,13.70
2019-04-05T14:41:41.547Z,13.60
2019-04-05T14:44:14.494Z,13.40
2019-04-05T14:46:42.002Z,13.30
2019-04-05T14:49:11.713Z,13.20
2019-04-05T14:51:52.552Z,13.20
2019-04-05T14:54:11.602Z,13.20
2019-04-05T14:56:42.033Z,13.40
2019-04-05T14:59:11.400Z,13.00
2019-04-05T15:01:40.657Z,13.00
2019-04-05T15:04:11.920Z,12.60
2019-04-05T15:06:40.746Z,12.50
2019-04-05T15:09:10.074Z,12.20
2019-04-05T15:11:39.497Z,11.90
2019-04-05T15:14:08.675Z,11.60
2019-04-05T15:16:38.394Z,11.50
2019-04-05T15:19:07.376Z,11.40
2019-04-05T15:21:38.795Z,11.10
2019-04-05T15:24:08.888Z,10.90
2019-04-05T15:26:38.475Z,10.90
2019-04-05T15:29:07.953Z,10.90
2019-04-05T15:31:37.528Z,10.80
2019-04-05T15:34:06.985Z,11.00
2019-04-05T15:36:36.594Z,10.90
2019-04-05T15:39:09.090Z,10.70
2019-04-05T15:41:38.922Z,10.90
2019-04-05T15:44:08.089Z,10.70
2019-04-05T15:46:37.362Z,10.70
2019-04-05T15:49:06.712Z,11.00
2019-04-05T15:51:35.913Z,11.20
2019-04-05T15:54:05.347Z,11.40
2019-04-05T15:56:34.609Z,11.30
2019-04-05T15:59:04.794Z,11.40
2019-04-05T16:01:34.260Z,11.50
2019-04-05T16:04:04.329Z,11.80
2019-04-05T16:06:33.688Z,12.20
2019-04-05T16:09:06.025Z,12.50
2019-04-05T16:11:35.065Z,13.00
2019-04-05T16:14:04.168Z,12.90
2019-04-05T16:16:33.249Z,12.90
2019-04-05T16:19:05.177Z,12.70
2019-04-05T16:21:34.372Z,12.50
2019-04-05T16:24:03.801Z,12.20
2019-04-05T16:26:32.955Z,11.90
2019-04-05T16:29:02.145Z,12.00
2019-04-05T16:31:31.137Z,12.00
2019-04-05T16:34:00.274Z,11.70
2019-04-05T16:36:30.992Z,11.40
2019-04-05T16:39:04.737Z,11.20
2019-04-05T16:41:34.323Z,11.30
2019-04-05T16:44:07.586Z,11.30
2019-04-05T16:46:37.025Z,11.40
2019-04-05T16:49:07.761Z,11.20
2019-04-05T16:51:36.923Z,11.30
2019-04-05T16:54:06.209Z,11.30
2019-04-05T16:56:38.721Z,11.20
2019-04-05T16:59:07.458Z,11.20
2019-04-05T17:01:36.709Z,11.20
2019-04-05T17:04:05.745Z,11.40
2019-04-05T17:06:35.378Z,11.40
2019-04-05T17:09:06.476Z,11.50
2019-04-05T17:11:35.922Z,11.80
2019-04-05T17:14:04.947Z,12.00
2019-04-05T17:16:34.056Z,12.00
2019-04-05T17:19:03.135Z,11.90
2019-04-05T17:21:32.305Z,11.80
2019-04-05T17:24:01.314Z,11.60
2019-04-05T17:26:30.441Z,11.60
2019-04-05T17:28:59.482Z,11.20
2019-04-05T17:31:28.578Z,11.20
2019-04-05T17:33:58.425Z,10.70
2019-04-05T17:36:27.725Z,10.40
2019-04-05T17:38:56.817Z,10.10
2019-04-05T17:41:26.185Z,9.80
2019-04-05T17:43:55.816Z,9.70
2019-04-05T17:46:25.369Z,9.50
2019-04-05T17:48:54.860Z,9.30
2019-04-05T17:51:24.153Z,9.10
2019-04-05T17:53:53.457Z,9.00
2019-04-05T17:56:22.914Z,8.90
2019-04-05T17:58:52.185Z,8.90
2019-04-05T18:01:23.055Z,8.90
2019-04-05T18:03:52.369Z,8.80
2019-04-05T18:06:22.402Z,8.80
2019-04-05T18:08:51.443Z,8.70
2019-04-05T18:11:20.713Z,8.60
2019-04-05T18:13:53.516Z,8.40
2019-04-05T18:16:22.945Z,8.20
2019-04-05T18:18:51.920Z,8.00
2019-04-05T18:21:21.377Z,7.80
2019-04-05T18:23:50.713Z,7.70
2019-04-05T18:26:20.114Z,7.60
2019-04-05T18:28:51.266Z,7.40
2019-04-05T18:31:24.547Z,7.20
2019-04-05T18:33:53.940Z,7.10
2019-04-05T18:36:25.285Z,6.90
2019-04-05T18:38:55.906Z,6.80
2019-04-05T18:41:25.177Z,6.70
2019-04-05T18:43:54.792Z,6.70
2019-04-05T18:46:24.289Z,6.50
2019-04-05T18:48:53.738Z,6.40
2019-04-05T18:51:22.794Z,6.40
2019-04-05T18:53:52.219Z,6.30
2019-04-05T18:56:21.330Z,6.30
2019-04-05T18:58:50.664Z,6.20
2019-04-05T19:01:23.633Z,6.00
2019-04-05T19:03:52.865Z,5.90
2019-04-05T19:06:21.891Z,5.70
2019-04-05T19:08:50.977Z,5.60
2019-04-05T19:11:20.330Z,5.50
2019-04-05T19:14:00.469Z,5.40
2019-04-05T19:16:21.857Z,5.40
2019-04-05T19:18:51.292Z,5.40
2019-04-05T19:21:20.706Z,5.30
2019-04-05T19:23:50.961Z,5.20
2019-04-05T19:26:20.785Z,5.10
2019-04-05T19:28:50.923Z,4.90
2019-04-05T19:49:03.098Z,4.10
2019-04-05T19:51:32.856Z,4.00
2019-04-05T19:54:02.082Z,4.00
2019-04-05T19:56:31.161Z,3.90
2019-04-05T19:59:03.633Z,3.90
2019-04-05T20:01:36.249Z,4.10
2019-04-05T20:04:09.304Z,4.30
2019-04-05T20:06:39.440Z,4.30
2019-04-05T20:09:09.089Z,4.40
2019-04-05T20:11:39.369Z,4.50
2019-04-05T20:14:12.761Z,4.20
2019-04-05T20:16:42.417Z,4.00
2019-04-05T20:19:12.808Z,3.70
2019-04-05T20:21:42.939Z,3.60
2019-04-05T20:24:19.377Z,3.50
2019-04-05T20:26:52.359Z,3.40
2019-04-05T20:29:22.361Z,3.30
2019-04-05T20:31:52.127Z,3.20
2019-04-05T20:34:21.497Z,3.20
2019-04-05T20:36:54.057Z,3.20
2019-04-05T20:39:23.489Z,3.20
2019-04-05T20:41:53.353Z,3.20
2019-04-05T20:44:23.409Z,3.20
2019-04-05T20:46:56.370Z,3.30
2019-04-05T20:49:25.838Z,3.50
2019-04-05T20:51:59.360Z,3.60
2019-04-05T20:54:28.993Z,3.60
2019-04-05T20:56:58.601Z,3.70
2019-04-05T20:59:28.451Z,3.90
2019-04-05T21:01:58.265Z,4.20
2019-04-05T21:04:28.234Z,4.40
2019-04-05T21:06:58.327Z,4.50
2019-04-05T21:09:27.769Z,4.50
2019-04-05T21:11:57.334Z,4.40
2019-04-05T21:14:26.625Z,4.40
2019-04-05T21:16:56.417Z,4.30
2019-04-05T21:19:26.533Z,4.10
2019-04-05T21:21:59.704Z,4.00
2019-04-05T21:24:36.149Z,3.90
2019-04-05T21:27:00.696Z,3.80
2019-04-05T21:29:33.303Z,3.80
2019-04-05T21:32:04.417Z,3.70
2019-04-05T21:34:34.466Z,3.70
2019-04-05T21:37:03.841Z,3.60
2019-04-05T21:39:33.720Z,3.60
2019-04-05T21:42:03.162Z,3.60
2019-04-05T21:44:32.441Z,3.70
2019-04-05T21:47:01.810Z,3.70
2019-04-05T21:49:31.073Z,3.70
2019-04-05T21:52:00.257Z,3.50
2019-04-05T21:54:29.732Z,3.50
2019-04-05T21:56:59.345Z,3.50
2019-04-05T21:59:28.802Z,3.50
2019-04-05T22:01:59.039Z,3.50
2019-04-05T22:04:30.065Z,3.50
2019-04-05T22:06:59.176Z,3.50
2019-04-05T22:09:28.620Z,3.60
2019-04-05T22:11:58.049Z,3.60
2019-04-05T22:14:28.355Z,3.70
2019-04-05T22:17:00.747Z,3.80
2019-04-05T22:19:30.029Z,3.80
2019-04-05T22:21:59.818Z,3.90
2019-04-05T22:24:30.515Z,3.90
2019-04-05T22:27:00.260Z,4.00
2019-04-05T22:29:29.986Z,4.00
2019-04-05T22:31:59.468Z,4.10
2019-04-05T22:34:29.099Z,4.10
2019-04-05T22:36:59.971Z,4.10
2019-04-05T22:39:28.949Z,4.20
2019-04-05T22:41:58.395Z,4.10
2019-04-05T22:44:37.831Z,4.20
2019-04-05T22:46:59.036Z,4.20
2019-04-05T22:49:30.900Z,4.20
2019-04-05T22:52:00.260Z,4.20
2019-04-05T22:54:30.899Z,4.30
2019-04-05T22:57:00.451Z,4.30
2019-04-05T22:59:29.722Z,4.30
2019-04-05T23:01:58.901Z,4.30
2019-04-05T23:04:28.625Z,4.40
2019-04-05T23:06:58.164Z,4.40
2019-04-05T23:09:27.467Z,4.40
2019-04-05T23:11:56.572Z,4.40
2019-04-05T23:14:25.558Z,4.50
2019-04-05T23:16:54.874Z,4.50
2019-04-05T23:19:24.171Z,4.50
2019-04-05T23:21:53.384Z,4.50
2019-04-05T23:24:22.803Z,4.40
2019-04-05T23:26:52.235Z,4.50
2019-04-05T23:29:21.667Z,4.50
2019-04-05T23:31:50.747Z,4.50
2019-04-05T23:34:20.108Z,4.50
2019-04-05T23:36:49.379Z,4.50
2019-04-05T23:39:18.487Z,4.50
2019-04-05T23:41:47.747Z,4.60
2019-04-05T23:44:17.019Z,4.60
2019-04-05T23:46:47.493Z,4.60
2019-04-05T23:49:16.867Z,4.60
2019-04-05T23:51:45.939Z,4.70
2019-04-05T23:54:15.083Z,4.60
2019-04-05T23:56:44.076Z,4.60
2019-04-05T23:59:13.220Z,4.70
